Aviation Digital Data Service (ADDS)

Output produced by METARs form (2341 UTC 20 December 2014)
found at http://aviationweather.gov/adds/metars/
 
KGSO 202331Z 2100/2124 VRB03KT P6SM SCT025 BKN040 
     TEMPO 2102/2106 BKN025 
     FM210600 00000KT 5SM BR BKN035 
     TEMPO 2109/2112 1SM BR BKN012 
     FM211400 06004KT P6SM BKN040